createdAt,value
2022-09-12T00:00:07.746Z,2.50
2022-09-12T00:01:07.802Z,2.20
2022-09-12T00:02:07.736Z,2.20
2022-09-12T00:03:07.711Z,2.30
2022-09-12T00:04:07.698Z,2.70
2022-09-12T00:05:07.686Z,2.10
2022-09-12T00:06:07.663Z,2.20
2022-09-12T00:07:07.659Z,2.60
2022-09-12T00:08:07.659Z,2.40
2022-09-12T00:09:07.668Z,2.90
2022-09-12T00:10:07.639Z,2.50
2022-09-12T00:11:07.639Z,2.00
2022-09-12T00:12:07.609Z,2.30
2022-09-12T00:13:07.631Z,2.50
2022-09-12T00:14:07.598Z,2.40
2022-09-12T00:15:07.579Z,2.00
2022-09-12T00:16:07.606Z,2.20
2022-09-12T00:17:07.566Z,2.50
2022-09-12T00:18:07.549Z,2.30
2022-09-12T00:19:07.568Z,2.20
2022-09-12T00:20:07.543Z,1.90
2022-09-12T00:21:07.531Z,1.80
2022-09-12T00:22:07.506Z,1.80
2022-09-12T00:23:07.531Z,2.20
2022-09-12T00:24:07.502Z,2.10
2022-09-12T00:25:07.491Z,1.90
2022-09-12T00:26:07.468Z,2.20
2022-09-12T00:27:07.459Z,2.30
2022-09-12T00:28:07.448Z,2.40
2022-09-12T00:29:07.456Z,2.40
2022-09-12T00:30:07.419Z,2.30
2022-09-12T00:31:07.417Z,2.30
2022-09-12T00:32:07.400Z,2.60
2022-09-12T00:33:07.420Z,2.20
2022-09-12T00:34:07.399Z,2.00
2022-09-12T00:35:07.381Z,2.00
2022-09-12T00:36:07.372Z,2.20
2022-09-12T00:37:07.365Z,1.90
2022-09-12T00:38:07.344Z,1.90
2022-09-12T00:39:07.364Z,2.10
2022-09-12T00:40:07.395Z,2.00
2022-09-12T00:41:07.319Z,2.30
2022-09-12T00:42:07.307Z,2.70
2022-09-12T00:43:07.314Z,2.70
2022-09-12T00:44:07.288Z,2.50
2022-09-12T00:45:07.267Z,2.40
2022-09-12T00:46:07.291Z,2.20
2022-09-12T00:47:07.275Z,2.30
2022-09-12T00:48:07.240Z,2.40
2022-09-12T00:49:07.260Z,2.40
2022-09-12T00:50:07.208Z,2.70
2022-09-12T00:51:07.222Z,2.10
2022-09-12T00:52:07.186Z,2.30
2022-09-12T00:53:07.206Z,2.30
2022-09-12T00:54:07.181Z,2.40
2022-09-12T00:55:07.189Z,2.60
2022-09-12T00:56:07.163Z,2.40
2022-09-12T00:57:07.149Z,2.60
2022-09-12T00:58:07.133Z,2.40
2022-09-12T00:59:07.152Z,2.30
2022-09-12T01:00:07.124Z,2.70
2022-09-12T01:01:07.211Z,2.00
2022-09-12T01:02:07.190Z,2.20
2022-09-12T01:03:07.090Z,2.80
2022-09-12T01:04:07.103Z,2.60
2022-09-12T01:05:07.075Z,2.30
2022-09-12T01:06:07.047Z,2.70
2022-09-12T01:07:07.037Z,2.70
2022-09-12T01:08:07.041Z,2.70
2022-09-12T01:09:07.055Z,2.70
2022-09-12T01:10:07.008Z,2.80
2022-09-12T01:11:07.003Z,2.40
2022-09-12T01:12:06.997Z,2.60
2022-09-12T01:13:06.998Z,2.40
2022-09-12T01:14:06.967Z,2.50
2022-09-12T01:15:07.002Z,2.50
2022-09-12T01:16:06.965Z,2.30
2022-09-12T01:17:06.978Z,2.60
2022-09-12T01:18:06.917Z,2.50
2022-09-12T01:19:06.931Z,2.20
2022-09-12T01:20:06.903Z,2.10
2022-09-12T01:21:06.908Z,2.40
2022-09-12T01:22:06.910Z,2.10
2022-09-12T01:23:06.924Z,2.60
2022-09-12T01:24:06.876Z,2.60
2022-09-12T01:25:06.866Z,2.40
2022-09-12T01:26:06.842Z,2.40
2022-09-12T01:27:06.851Z,2.70
2022-09-12T01:28:06.860Z,2.40
2022-09-12T01:29:06.830Z,2.20
2022-09-12T01:30:06.795Z,2.80
2022-09-12T01:31:06.797Z,2.70
2022-09-12T01:32:06.840Z,2.60
2022-09-12T01:33:06.783Z,2.70
2022-09-12T01:34:06.751Z,2.40
2022-09-12T01:35:06.753Z,2.10
2022-09-12T01:36:06.752Z,2.20
2022-09-12T01:37:06.736Z,2.20
2022-09-12T01:38:06.754Z,2.40
2022-09-12T01:39:06.758Z,2.50
2022-09-12T01:40:06.785Z,2.40
2022-09-12T01:41:06.702Z,2.40
2022-09-12T01:42:06.681Z,2.10
2022-09-12T01:43:06.687Z,2.10
2022-09-12T01:44:06.677Z,2.30
2022-09-12T01:45:06.655Z,1.90
2022-09-12T01:46:06.703Z,2.40
2022-09-12T01:47:06.658Z,2.60
2022-09-12T01:48:06.627Z,2.10
2022-09-12T01:49:06.695Z,2.20
2022-09-12T01:50:06.594Z,2.10
2022-09-12T01:51:06.606Z,2.20
2022-09-12T01:52:06.572Z,2.00
2022-09-12T01:53:06.579Z,2.30
2022-09-12T01:54:06.558Z,2.30
2022-09-12T01:55:09.600Z,2.90
2022-09-12T01:56:06.537Z,2.80
2022-09-12T01:57:06.526Z,2.50
2022-09-12T01:58:06.521Z,2.40
2022-09-12T01:59:06.527Z,1.90
2022-09-12T02:00:06.514Z,2.00
2022-09-12T02:01:06.532Z,1.90
2022-09-12T02:02:06.513Z,2.60
2022-09-12T02:03:06.501Z,2.00
2022-09-12T02:04:06.549Z,2.30
2022-09-12T02:05:06.471Z,2.20
2022-09-12T02:06:06.459Z,2.70
2022-09-12T02:07:06.436Z,2.50
2022-09-12T02:08:06.447Z,2.50
2022-09-12T02:09:06.455Z,2.10
2022-09-12T02:10:06.426Z,2.50
2022-09-12T02:11:06.404Z,2.30
2022-09-12T02:12:06.414Z,2.70
2022-09-12T02:13:06.362Z,2.30
2022-09-12T02:14:06.365Z,2.10
2022-09-12T02:15:06.401Z,2.20
2022-09-12T02:16:06.380Z,2.20
2022-09-12T02:17:06.346Z,2.20
2022-09-12T02:18:06.318Z,2.10
2022-09-12T02:19:07.120Z,2.30
2022-09-12T02:20:06.290Z,2.70
2022-09-12T02:21:06.286Z,2.60
2022-09-12T02:22:06.258Z,2.20
2022-09-12T02:23:07.820Z,2.40
2022-09-12T02:24:06.278Z,2.10
2022-09-12T02:25:06.235Z,2.40
2022-09-12T02:26:06.225Z,2.70
2022-09-12T02:27:06.231Z,2.30
2022-09-12T02:28:06.209Z,2.60
2022-09-12T02:29:06.227Z,2.30
2022-09-12T02:30:06.191Z,2.50
2022-09-12T02:31:06.227Z,2.10
2022-09-12T02:32:06.163Z,2.50
2022-09-12T02:33:06.166Z,2.10
2022-09-12T02:34:06.148Z,2.30
2022-09-12T02:35:06.142Z,2.20
2022-09-12T02:36:06.120Z,2.70
2022-09-12T02:37:06.126Z,2.20
2022-09-12T02:38:06.095Z,2.10
2022-09-12T02:39:06.118Z,2.40
2022-09-12T02:40:06.119Z,2.40
2022-09-12T02:41:06.072Z,2.50
2022-09-12T02:42:06.065Z,2.10
2022-09-12T02:43:06.069Z,3.00
2022-09-12T02:44:06.059Z,2.60
2022-09-12T02:45:06.034Z,2.60
2022-09-12T02:46:06.105Z,2.20
2022-09-12T02:47:06.022Z,2.40
2022-09-12T02:48:06.000Z,2.80
2022-09-12T02:49:06.003Z,2.80
2022-09-12T02:50:06.686Z,2.30
2022-09-12T02:51:05.972Z,2.30
2022-09-12T02:52:05.968Z,2.50
2022-09-12T02:53:05.949Z,2.50
2022-09-12T02:54:05.937Z,2.00
2022-09-12T02:55:05.918Z,2.90
2022-09-12T02:56:05.934Z,2.40
2022-09-12T02:57:05.913Z,2.50
2022-09-12T02:58:05.918Z,2.20
2022-09-12T02:59:05.883Z,2.30
2022-09-12T03:00:05.882Z,2.80
2022-09-12T03:01:05.989Z,2.50
2022-09-12T03:02:05.913Z,2.10
2022-09-12T03:03:05.851Z,2.20
2022-09-12T03:04:05.879Z,2.30
2022-09-12T03:05:05.817Z,2.70
2022-09-12T03:06:05.831Z,2.40
2022-09-12T03:07:05.800Z,2.60
2022-09-12T03:08:05.805Z,2.50
2022-09-12T03:09:05.803Z,2.60
2022-09-12T03:10:05.772Z,2.60
2022-09-12T03:11:05.791Z,2.70
2022-09-12T03:12:05.781Z,2.20
2022-09-12T03:13:05.728Z,2.50
2022-09-12T03:14:05.768Z,2.10
2022-09-12T03:15:05.724Z,2.50
2022-09-12T03:16:05.803Z,2.40
2022-09-12T03:17:05.716Z,2.70
2022-09-12T03:18:05.700Z,2.40
2022-09-12T03:19:05.702Z,2.50
2022-09-12T03:20:05.687Z,2.70
2022-09-12T03:21:05.690Z,2.80
2022-09-12T03:22:05.662Z,2.60
2022-09-12T03:23:05.645Z,2.40
2022-09-12T03:24:05.662Z,2.20
2022-09-12T03:25:05.611Z,2.70
2022-09-12T03:26:05.637Z,2.70
2022-09-12T03:27:05.597Z,3.10
2022-09-12T03:28:05.610Z,2.60
2022-09-12T03:29:05.606Z,2.70
2022-09-12T03:30:05.571Z,2.40
2022-09-12T03:31:05.649Z,2.50
2022-09-12T03:32:05.554Z,2.50
2022-09-12T03:33:05.537Z,2.70
2022-09-12T03:34:05.605Z,2.90
2022-09-12T03:35:05.519Z,2.10
2022-09-12T03:36:05.527Z,2.00
2022-09-12T03:37:05.495Z,2.20
2022-09-12T03:38:05.490Z,2.70
2022-09-12T03:39:05.488Z,2.20
2022-09-12T03:40:05.529Z,3.00
2022-09-12T03:41:05.461Z,2.40
2022-09-12T03:42:05.476Z,2.50
2022-09-12T03:43:05.447Z,2.20
2022-09-12T03:44:05.479Z,2.50
2022-09-12T03:45:05.432Z,2.30
2022-09-12T03:46:05.421Z,2.40
2022-09-12T03:47:10.588Z,2.10
2022-09-12T03:48:05.392Z,2.60
2022-09-12T03:49:05.378Z,2.30
2022-09-12T03:50:05.379Z,2.40
2022-09-12T03:51:05.340Z,3.10
2022-09-12T03:52:05.338Z,2.20
2022-09-12T03:53:05.335Z,1.90
2022-09-12T03:54:05.375Z,2.20
2022-09-12T03:55:05.340Z,2.10
2022-09-12T03:56:05.304Z,2.60
2022-09-12T03:57:05.347Z,2.20
2022-09-12T03:58:05.295Z,2.40
2022-09-12T03:59:05.275Z,2.70
2022-09-12T04:00:05.352Z,2.10
2022-09-12T04:01:05.335Z,1.90
2022-09-12T04:02:05.285Z,1.90
2022-09-12T04:03:05.241Z,2.20
2022-09-12T04:04:05.206Z,2.30
2022-09-12T04:05:05.228Z,1.90
2022-09-12T04:06:05.189Z,2.20
2022-09-12T04:07:05.184Z,2.10
2022-09-12T04:08:05.183Z,2.00
2022-09-12T04:09:05.180Z,1.90
2022-09-12T04:10:05.191Z,2.20
2022-09-12T04:11:05.162Z,1.90
2022-09-12T04:12:05.169Z,1.90
2022-09-12T04:13:05.156Z,2.20
2022-09-12T04:14:05.322Z,2.20
2022-09-12T04:15:05.152Z,2.40
2022-09-12T04:16:05.095Z,2.30
2022-09-12T04:17:05.118Z,2.00
2022-09-12T04:18:06.149Z,2.20
2022-09-12T04:19:05.058Z,2.10
2022-09-12T04:20:05.105Z,2.30
2022-09-12T04:21:05.061Z,1.90
2022-09-12T04:22:05.025Z,2.00
2022-09-12T04:23:05.048Z,2.10
2022-09-12T04:24:05.026Z,2.30
2022-09-12T04:25:05.016Z,2.20
2022-09-12T04:26:05.008Z,1.80
2022-09-12T04:27:07.848Z,2.40
2022-09-12T04:28:04.986Z,2.30
2022-09-12T04:29:04.972Z,2.30
2022-09-12T04:30:04.959Z,2.40
2022-09-12T04:31:05.062Z,2.00
2022-09-12T04:32:04.961Z,2.50
2022-09-12T04:33:07.989Z,2.00
2022-09-12T04:34:04.931Z,2.30
2022-09-12T04:35:05.113Z,2.10
2022-09-12T04:36:04.931Z,2.20
2022-09-12T04:37:04.972Z,2.50
2022-09-12T04:38:04.885Z,2.20
2022-09-12T04:39:04.882Z,2.10
2022-09-12T04:40:04.914Z,2.20
2022-09-12T04:41:04.855Z,2.10
2022-09-12T04:42:04.841Z,2.20
2022-09-12T04:43:04.812Z,2.10
2022-09-12T04:44:04.811Z,2.20
2022-09-12T04:45:04.823Z,2.10
2022-09-12T04:46:04.861Z,2.40
2022-09-12T04:47:04.780Z,1.90
2022-09-12T04:48:04.780Z,2.00
2022-09-12T04:49:04.778Z,2.20
2022-09-12T04:50:04.747Z,2.10
2022-09-12T04:51:04.764Z,2.00
2022-09-12T04:52:04.764Z,2.30
2022-09-12T04:53:04.746Z,1.80
2022-09-12T04:54:04.723Z,2.00
2022-09-12T04:55:04.721Z,2.10
2022-09-12T04:56:04.685Z,2.20
2022-09-12T04:57:04.709Z,2.00
2022-09-12T04:58:04.675Z,1.70
2022-09-12T04:59:04.673Z,2.00
2022-09-12T05:00:07.236Z,2.10
2022-09-12T05:01:04.656Z,2.30
2022-09-12T05:02:04.899Z,1.80
2022-09-12T05:03:04.620Z,1.90
2022-09-12T05:04:04.609Z,2.20
2022-09-12T05:05:04.595Z,2.50
2022-09-12T05:06:04.658Z,2.10
2022-09-12T05:07:04.617Z,2.00
2022-09-12T05:08:04.598Z,2.20
2022-09-12T05:09:04.559Z,2.30
2022-09-12T05:10:04.547Z,2.00
2022-09-12T05:11:04.554Z,2.30
2022-09-12T05:12:05.521Z,2.10
2022-09-12T05:13:04.535Z,2.20
2022-09-12T05:14:05.548Z,1.90
2022-09-12T05:15:05.382Z,2.20
2022-09-12T05:16:04.487Z,2.00
2022-09-12T05:17:04.551Z,2.00
2022-09-12T05:18:04.457Z,2.00
2022-09-12T05:19:04.466Z,2.20
2022-09-12T05:20:04.462Z,2.30
2022-09-12T05:21:04.545Z,2.40
2022-09-12T05:22:04.439Z,2.00
2022-09-12T05:23:05.038Z,1.90
2022-09-12T05:24:04.399Z,1.80
2022-09-12T05:25:04.422Z,1.80
2022-09-12T05:26:04.367Z,2.10
2022-09-12T05:27:04.386Z,2.00
2022-09-12T05:28:04.369Z,2.00
2022-09-12T05:29:04.379Z,2.20
2022-09-12T05:30:04.965Z,2.60
2022-09-12T05:31:04.385Z,2.00
2022-09-12T05:32:04.338Z,2.10
2022-09-12T05:33:04.329Z,2.40
2022-09-12T05:34:04.327Z,2.00
2022-09-12T05:35:04.288Z,2.10
2022-09-12T05:36:04.272Z,2.50
2022-09-12T05:37:04.291Z,2.00
2022-09-12T05:38:04.263Z,2.10
2022-09-12T05:39:04.285Z,2.20
2022-09-12T05:40:04.319Z,1.90
2022-09-12T05:41:04.260Z,1.90
2022-09-12T05:42:04.230Z,4.30
2022-09-12T05:43:04.280Z,1.90
2022-09-12T05:44:04.209Z,2.20
2022-09-12T05:45:04.216Z,1.80
2022-09-12T05:46:04.273Z,2.00
2022-09-12T05:47:04.233Z,1.90
2022-09-12T05:48:04.170Z,1.80
2022-09-12T05:49:04.161Z,2.00
2022-09-12T05:50:04.166Z,1.70
2022-09-12T05:51:04.133Z,1.80
2022-09-12T05:52:04.123Z,2.00
2022-09-12T05:53:04.134Z,1.80
2022-09-12T05:54:04.097Z,2.10
2022-09-12T05:55:04.134Z,1.80
2022-09-12T05:56:04.080Z,2.10
2022-09-12T05:57:04.083Z,2.10
2022-09-12T05:58:04.066Z,2.20
2022-09-12T05:59:04.080Z,2.00
2022-09-12T06:00:04.048Z,2.10
2022-09-12T06:01:04.099Z,2.20
2022-09-12T06:02:04.139Z,2.00
2022-09-12T06:03:04.022Z,1.80
2022-09-12T06:04:04.026Z,1.90
2022-09-12T06:05:04.033Z,2.10
2022-09-12T06:06:04.032Z,1.70
2022-09-12T06:07:03.992Z,1.70
2022-09-12T06:08:03.946Z,2.10
2022-09-12T06:09:03.962Z,2.10
2022-09-12T06:10:03.944Z,2.00
2022-09-12T06:11:03.956Z,2.00
2022-09-12T06:12:03.958Z,2.20
2022-09-12T06:13:03.922Z,2.30
2022-09-12T06:14:03.900Z,2.20
2022-09-12T06:15:03.890Z,1.90
2022-09-12T06:16:03.875Z,2.70
2022-09-12T06:17:03.931Z,2.30
2022-09-12T06:18:03.862Z,2.40
2022-09-12T06:19:03.856Z,2.30
2022-09-12T06:20:03.841Z,2.40
2022-09-12T06:21:04.045Z,2.30
2022-09-12T06:22:03.838Z,2.10
2022-09-12T06:23:03.819Z,2.10
2022-09-12T06:24:03.807Z,2.50
2022-09-12T06:25:03.800Z,2.10
2022-09-12T06:26:03.805Z,2.40
2022-09-12T06:27:03.814Z,2.30
2022-09-12T06:28:03.764Z,2.20
2022-09-12T06:29:03.753Z,2.10
2022-09-12T06:30:03.737Z,2.50
2022-09-12T06:31:03.843Z,2.10
2022-09-12T06:32:03.717Z,2.30
2022-09-12T06:33:03.749Z,2.30
2022-09-12T06:34:03.702Z,2.20
2022-09-12T06:35:03.708Z,2.30
2022-09-12T06:36:03.673Z,2.20
2022-09-12T06:37:03.696Z,2.00
2022-09-12T06:38:03.910Z,2.40
2022-09-12T06:39:03.666Z,2.50
2022-09-12T06:40:03.672Z,2.20
2022-09-12T06:41:03.650Z,2.30
2022-09-12T06:42:03.625Z,2.70
2022-09-12T06:43:03.617Z,2.60
2022-09-12T06:44:03.638Z,2.30
2022-09-12T06:45:03.602Z,2.60
2022-09-12T06:46:03.650Z,2.20
2022-09-12T06:47:03.587Z,2.80
2022-09-12T06:48:03.558Z,2.50
2022-09-12T06:49:03.583Z,2.40
2022-09-12T06:50:03.539Z,2.20
2022-09-12T06:51:03.536Z,2.20
2022-09-12T06:52:03.544Z,2.70
2022-09-12T06:53:03.580Z,2.00
2022-09-12T06:54:03.504Z,2.50
2022-09-12T06:55:03.491Z,2.50
2022-09-12T06:56:03.472Z,2.90
2022-09-12T06:57:03.477Z,2.80
2022-09-12T06:58:03.444Z,2.60
2022-09-12T06:59:03.480Z,3.00
2022-09-12T07:00:03.426Z,2.20
2022-09-12T07:01:03.582Z,2.40
2022-09-12T07:02:03.483Z,2.40
2022-09-12T07:03:03.425Z,2.60
2022-09-12T07:04:03.424Z,2.10
2022-09-12T07:05:03.392Z,2.50
2022-09-12T07:06:03.381Z,2.60
2022-09-12T07:07:03.374Z,2.80
2022-09-12T07:08:03.633Z,2.40
2022-09-12T07:09:03.343Z,2.30
2022-09-12T07:10:03.352Z,2.20
2022-09-12T07:11:03.310Z,2.10
2022-09-12T07:12:03.309Z,2.60
2022-09-12T07:13:03.480Z,2.10
2022-09-12T07:14:03.315Z,2.50
2022-09-12T07:15:03.498Z,2.20
2022-09-12T07:16:03.303Z,2.60
2022-09-12T07:17:03.341Z,2.30
2022-09-12T07:18:03.276Z,1.90
2022-09-12T07:19:03.432Z,2.20
2022-09-12T07:20:03.266Z,2.40
2022-09-12T07:21:03.226Z,2.10
2022-09-12T07:22:03.203Z,2.20
2022-09-12T07:23:03.189Z,1.80
2022-09-12T07:24:03.194Z,1.50
2022-09-12T07:25:03.488Z,1.90
2022-09-12T07:26:03.202Z,1.20
2022-09-12T07:27:03.160Z,1.50
2022-09-12T07:28:03.216Z,1.30
2022-09-12T07:29:32.260Z,1.10
2022-09-12T07:30:03.152Z,1.30
2022-09-12T07:31:03.352Z,1.60
2022-09-12T07:32:03.151Z,1.60
2022-09-12T07:33:03.090Z,1.40
2022-09-12T07:34:03.092Z,1.00
2022-09-12T07:35:03.093Z,1.30
2022-09-12T07:36:03.110Z,1.60
2022-09-12T07:37:03.080Z,1.30
2022-09-12T07:38:03.060Z,1.40
2022-09-12T07:39:03.052Z,1.40
2022-09-12T07:40:03.185Z,1.50
2022-09-12T07:41:03.001Z,1.10
2022-09-12T07:42:03.039Z,1.10
2022-09-12T07:43:03.012Z,1.10
2022-09-12T07:44:03.011Z,1.30
2022-09-12T07:45:02.976Z,1.20
2022-09-12T07:46:03.048Z,1.60
2022-09-12T07:47:02.955Z,1.50
2022-09-12T07:48:02.991Z,1.20
2022-09-12T07:49:02.919Z,1.40
2022-09-12T07:50:02.923Z,1.40
2022-09-12T07:51:02.910Z,1.40
2022-09-12T07:52:02.900Z,1.30
2022-09-12T07:53:02.935Z,1.30
2022-09-12T07:54:02.880Z,1.20
2022-09-12T07:55:02.864Z,1.30
2022-09-12T07:56:03.112Z,1.10
2022-09-12T07:57:02.848Z,1.20
2022-09-12T07:58:02.873Z,1.60
2022-09-12T07:59:02.829Z,1.10
2022-09-12T08:00:02.832Z,1.60
2022-09-12T08:01:02.901Z,1.40
2022-09-12T08:02:02.850Z,1.30
2022-09-12T08:03:02.799Z,1.60
2022-09-12T08:04:02.818Z,1.20
2022-09-12T08:05:02.774Z,1.00
2022-09-12T08:06:03.145Z,1.20
2022-09-12T08:07:02.734Z,1.00
2022-09-12T08:08:02.733Z,1.50
2022-09-12T08:09:02.730Z,1.30
2022-09-12T08:10:02.746Z,0.90
2022-09-12T08:11:02.701Z,1.40
2022-09-12T08:12:02.696Z,1.10
2022-09-12T08:13:02.684Z,1.30
2022-09-12T08:14:02.689Z,1.10
2022-09-12T08:15:02.666Z,1.20
2022-09-12T08:16:02.725Z,1.40
2022-09-12T08:17:02.826Z,1.40
2022-09-12T08:18:02.813Z,1.10
2022-09-12T08:19:02.635Z,1.70
2022-09-12T08:20:02.610Z,1.30
2022-09-12T08:21:02.598Z,1.30
2022-09-12T08:22:02.603Z,0.80
2022-09-12T08:23:02.571Z,1.30
2022-09-12T08:24:02.607Z,1.40
2022-09-12T08:25:02.566Z,1.40
2022-09-12T08:26:05.939Z,1.20
2022-09-12T08:27:02.547Z,1.60
2022-09-12T08:28:02.546Z,1.10
2022-09-12T08:29:02.530Z,1.30
2022-09-12T08:30:02.510Z,0.90
2022-09-12T08:31:02.531Z,1.70
2022-09-12T08:32:02.465Z,1.30
2022-09-12T08:33:02.463Z,1.30
2022-09-12T08:34:02.505Z,1.00
2022-09-12T08:35:02.488Z,1.20
2022-09-12T08:36:02.517Z,1.40
2022-09-12T08:37:02.427Z,1.30
2022-09-12T08:38:02.432Z,1.40
2022-09-12T08:39:02.403Z,1.30
2022-09-12T08:40:02.486Z,1.30
2022-09-12T08:41:02.364Z,1.30
2022-09-12T08:42:02.444Z,1.30
2022-09-12T08:43:02.329Z,1.20
2022-09-12T08:44:02.359Z,1.50
2022-09-12T08:45:02.332Z,1.80
2022-09-12T08:46:02.401Z,1.50
2022-09-12T08:47:02.312Z,1.40
2022-09-12T08:48:02.464Z,1.30
2022-09-12T08:49:02.278Z,1.10
2022-09-12T08:50:02.296Z,1.00
2022-09-12T08:51:02.258Z,1.00
2022-09-12T08:52:02.278Z,0.70
2022-09-12T08:53:02.274Z,1.00
2022-09-12T08:54:02.232Z,0.90
2022-09-12T08:55:02.227Z,1.10
2022-09-12T08:56:02.220Z,1.10
2022-09-12T08:57:02.937Z,1.10
2022-09-12T08:58:02.234Z,1.00
2022-09-12T08:59:02.189Z,0.70
2022-09-12T09:00:02.231Z,0.80
2022-09-12T09:01:03.207Z,0.70
2022-09-12T09:02:02.218Z,0.80
2022-09-12T09:03:02.181Z,1.00
2022-09-12T09:04:02.136Z,0.60
2022-09-12T09:05:07.742Z,0.60
2022-09-12T09:06:02.129Z,0.90
2022-09-12T09:07:02.093Z,0.70
2022-09-12T09:08:02.125Z,0.50
2022-09-12T09:09:02.087Z,1.00
2022-09-12T09:10:10.428Z,0.60
2022-09-12T09:11:02.057Z,0.70
2022-09-12T09:12:02.052Z,0.50
2022-09-12T09:13:02.049Z,0.70
2022-09-12T09:14:05.145Z,0.80
2022-09-12T09:15:02.021Z,0.70
2022-09-12T09:16:02.033Z,0.50
2022-09-12T09:17:01.995Z,0.70
2022-09-12T09:18:02.006Z,0.60
2022-09-12T09:19:01.993Z,0.70
2022-09-12T09:20:01.982Z,0.80
2022-09-12T09:21:01.957Z,0.50
2022-09-12T09:22:01.987Z,0.70
2022-09-12T09:23:01.944Z,0.60
2022-09-12T09:24:01.949Z,0.60
2022-09-12T09:25:01.905Z,0.60
2022-09-12T09:26:01.917Z,0.60
2022-09-12T09:27:01.885Z,0.60
2022-09-12T09:28:01.925Z,0.60
2022-09-12T09:29:01.875Z,0.60
2022-09-12T09:30:02.025Z,0.50
2022-09-12T09:31:01.928Z,0.40
2022-09-12T09:32:01.873Z,0.60
2022-09-12T09:33:01.836Z,0.60
2022-09-12T09:34:01.870Z,0.60
2022-09-12T09:35:01.816Z,0.60
2022-09-12T09:36:01.849Z,0.80
2022-09-12T09:37:01.794Z,0.70
2022-09-12T09:38:01.804Z,0.60
2022-09-12T09:39:01.799Z,0.80
2022-09-12T09:40:01.840Z,0.60
2022-09-12T09:41:01.757Z,0.80
2022-09-12T09:42:01.758Z,0.80
2022-09-12T09:43:01.740Z,1.10
2022-09-12T09:44:01.790Z,0.50
2022-09-12T09:45:01.758Z,0.60
2022-09-12T09:46:01.748Z,0.60
2022-09-12T09:47:01.713Z,0.60
2022-09-12T09:48:01.706Z,0.60
2022-09-12T09:49:02.614Z,0.60
2022-09-12T09:50:01.729Z,0.80
2022-09-12T09:51:01.698Z,0.80
2022-09-12T09:52:01.678Z,0.60
2022-09-12T09:53:01.699Z,0.60
2022-09-12T09:54:01.684Z,0.50
2022-09-12T09:55:01.659Z,0.60
2022-09-12T09:56:01.652Z,0.60
2022-09-12T09:57:01.650Z,0.60
2022-09-12T09:58:01.658Z,0.50
2022-09-12T09:59:01.673Z,0.50
2022-09-12T10:00:01.654Z,0.50
2022-09-12T10:01:01.703Z,0.60
2022-09-12T10:02:01.679Z,0.50
2022-09-12T10:03:01.617Z,0.50
2022-09-12T10:04:01.599Z,0.50
2022-09-12T10:05:01.586Z,0.40
2022-09-12T10:06:01.570Z,0.50
2022-09-12T10:07:01.543Z,0.60
2022-09-12T10:08:01.541Z,0.50
2022-09-12T10:09:01.536Z,0.50
2022-09-12T10:10:01.545Z,0.50
2022-09-12T10:11:01.503Z,0.40
2022-09-12T10:12:01.502Z,0.60
2022-09-12T10:13:01.495Z,0.50
2022-09-12T10:14:01.509Z,0.70
2022-09-12T10:15:01.497Z,0.60
2022-09-12T10:16:01.527Z,0.40
2022-09-12T10:17:01.469Z,0.60
2022-09-12T10:18:01.463Z,0.60
2022-09-12T10:19:01.436Z,0.60
2022-09-12T10:21:01.439Z,0.70
2022-09-12T10:22:01.420Z,0.60
2022-09-12T10:23:01.393Z,0.60
2022-09-12T10:24:01.399Z,0.80
2022-09-12T10:25:01.384Z,0.30
2022-09-12T10:26:01.390Z,0.80
2022-09-12T10:27:01.358Z,0.60
2022-09-12T10:28:01.355Z,0.60
2022-09-12T10:29:01.321Z,0.60
2022-09-12T10:30:01.357Z,0.50
2022-09-12T10:31:01.352Z,0.60
2022-09-12T10:32:01.302Z,0.50
2022-09-12T10:33:01.298Z,0.70
2022-09-12T10:34:01.300Z,0.70
2022-09-12T10:35:01.284Z,0.50
2022-09-12T10:36:01.282Z,0.70
2022-09-12T10:37:01.248Z,0.80
2022-09-12T10:38:01.252Z,0.40
2022-09-12T10:39:01.238Z,0.60
2022-09-12T10:40:01.266Z,0.80
2022-09-12T10:41:01.219Z,0.70
2022-09-12T10:42:01.214Z,0.90
2022-09-12T10:43:01.187Z,0.60
2022-09-12T10:44:01.192Z,0.70
2022-09-12T10:45:01.173Z,0.60
2022-09-12T10:46:01.214Z,0.60
2022-09-12T10:47:01.143Z,0.40
2022-09-12T10:48:05.466Z,0.60
2022-09-12T10:49:01.140Z,0.60
2022-09-12T10:50:01.126Z,0.60
2022-09-12T10:51:01.094Z,0.50
2022-09-12T10:52:01.121Z,0.60
2022-09-12T10:53:01.082Z,0.50
2022-09-12T10:54:01.078Z,0.80
2022-09-12T10:55:01.081Z,0.60
2022-09-12T10:56:01.055Z,0.80
2022-09-12T10:57:01.041Z,0.60
2022-09-12T10:58:01.028Z,0.50
2022-09-12T10:59:01.015Z,0.60
2022-09-12T11:00:01.451Z,1.00
2022-09-12T11:01:01.049Z,0.70
2022-09-12T11:02:01.118Z,0.80
2022-09-12T11:03:00.980Z,0.60
2022-09-12T11:04:00.990Z,0.60
2022-09-12T11:05:00.956Z,0.50
2022-09-12T11:06:00.953Z,0.60
2022-09-12T11:07:00.941Z,0.50
2022-09-12T11:08:00.959Z,0.40
2022-09-12T11:09:00.957Z,0.90
2022-09-12T11:10:00.912Z,0.50
2022-09-12T11:11:00.886Z,0.70
2022-09-12T11:12:00.884Z,0.70
2022-09-12T11:13:00.878Z,0.70
2022-09-12T11:14:00.875Z,0.80
2022-09-12T11:15:00.877Z,0.50
2022-09-12T11:16:00.938Z,0.80
2022-09-12T11:17:00.841Z,0.50
2022-09-12T11:18:00.833Z,0.70
2022-09-12T11:19:00.896Z,0.80
2022-09-12T11:20:00.838Z,0.70
2022-09-12T11:21:00.792Z,0.70
2022-09-12T11:22:00.793Z,0.60
2022-09-12T11:23:00.780Z,0.80
2022-09-12T11:24:00.777Z,0.70
2022-09-12T11:25:00.752Z,0.30
2022-09-12T11:26:00.750Z,0.40
2022-09-12T11:27:00.748Z,0.40
2022-09-12T11:28:00.724Z,0.40
2022-09-12T11:29:00.748Z,0.50
2022-09-12T11:30:00.693Z,0.40
2022-09-12T11:31:00.855Z,0.50
2022-09-12T11:32:00.670Z,0.40
2022-09-12T11:33:00.671Z,0.30
2022-09-12T11:34:00.654Z,0.40
2022-09-12T11:35:00.647Z,0.40
2022-09-12T11:36:00.649Z,0.50
2022-09-12T11:37:00.645Z,0.40
2022-09-12T11:38:00.609Z,0.60
2022-09-12T11:39:00.609Z,0.60
2022-09-12T11:40:00.661Z,0.60
2022-09-12T11:41:00.614Z,0.90
2022-09-12T11:42:00.586Z,0.30
2022-09-12T11:43:00.599Z,0.70
2022-09-12T11:44:00.560Z,0.50
2022-09-12T11:45:00.549Z,0.40
2022-09-12T11:46:00.596Z,0.70
2022-09-12T11:47:00.541Z,0.40
2022-09-12T11:48:00.523Z,0.30
2022-09-12T11:49:00.517Z,0.50
2022-09-12T11:50:00.487Z,0.60
2022-09-12T11:51:00.501Z,0.60
2022-09-12T11:52:00.468Z,0.50
2022-09-12T11:53:00.481Z,0.60
2022-09-12T11:54:00.449Z,0.40
2022-09-12T11:55:00.614Z,0.40
2022-09-12T11:56:00.449Z,0.50
2022-09-12T11:57:00.439Z,0.60
2022-09-12T11:58:00.451Z,0.60
2022-09-12T11:58:59.392Z,0.50
2022-09-12T12:00:00.551Z,0.30
2022-09-12T12:01:00.416Z,0.50
2022-09-12T12:02:00.504Z,0.60
2022-09-12T12:03:00.366Z,0.50
2022-09-12T12:04:00.414Z,0.40
2022-09-12T12:05:00.357Z,0.40
2022-09-12T12:06:00.333Z,0.50
2022-09-12T12:07:00.353Z,0.30
2022-09-12T12:08:00.315Z,0.30
2022-09-12T12:09:00.320Z,0.40
2022-09-12T12:10:00.318Z,0.40
2022-09-12T12:11:00.287Z,0.50
2022-09-12T12:12:00.337Z,0.30
2022-09-12T12:13:00.273Z,0.50
2022-09-12T12:14:00.253Z,0.40
2022-09-12T12:15:00.261Z,0.30
2022-09-12T12:16:00.336Z,0.40
2022-09-12T12:17:00.246Z,0.60
2022-09-12T12:18:00.204Z,0.40
2022-09-12T12:19:00.200Z,0.40
2022-09-12T12:20:05.558Z,0.40
2022-09-12T12:21:00.215Z,0.60
2022-09-12T12:22:00.173Z,0.60
2022-09-12T12:23:00.159Z,0.40
2022-09-12T12:24:00.146Z,0.50
2022-09-12T12:25:00.160Z,0.80
2022-09-12T12:26:00.123Z,0.40
2022-09-12T12:27:00.122Z,0.30
2022-09-12T12:28:00.133Z,0.50
2022-09-12T12:29:00.106Z,0.60
2022-09-12T12:30:00.104Z,0.50
2022-09-12T12:31:00.168Z,0.60
2022-09-12T12:32:00.074Z,0.30
2022-09-12T12:33:00.058Z,0.30
2022-09-12T12:34:00.047Z,0.50
2022-09-12T12:35:00.096Z,0.50
2022-09-12T12:36:00.027Z,0.40
2022-09-12T12:37:03.194Z,0.50
2022-09-12T12:38:00.003Z,0.60
2022-09-12T12:38:59.996Z,0.60
2022-09-12T12:40:00.039Z,0.60
2022-09-12T12:40:59.976Z,0.70
2022-09-12T12:41:59.951Z,0.30
2022-09-12T12:42:59.946Z,0.60
2022-09-12T12:43:59.928Z,0.40
2022-09-12T12:44:59.950Z,0.50
2022-09-12T12:45:59.971Z,0.40
2022-09-12T12:46:59.943Z,0.40
2022-09-12T12:47:59.912Z,0.60
2022-09-12T12:48:59.895Z,0.50
2022-09-12T12:49:59.893Z,0.40
2022-09-12T12:50:59.877Z,0.50
2022-09-12T12:51:59.859Z,0.50
2022-09-12T12:52:59.852Z,0.50
2022-09-12T12:53:59.829Z,0.40
2022-09-12T12:54:59.849Z,0.50
2022-09-12T12:55:59.808Z,0.40
2022-09-12T12:56:59.816Z,0.60
2022-09-12T12:57:59.786Z,0.30
2022-09-12T12:58:59.820Z,0.40
2022-09-12T12:59:59.782Z,0.20
2022-09-12T13:00:59.773Z,0.50
2022-09-12T13:01:59.785Z,0.40
2022-09-12T13:02:59.748Z,0.80
2022-09-12T13:03:59.725Z,0.40
2022-09-12T13:04:59.756Z,0.50
2022-09-12T13:05:59.712Z,0.60
2022-09-12T13:07:00.556Z,0.80
2022-09-12T13:07:59.683Z,0.50
2022-09-12T13:08:59.729Z,0.60
2022-09-12T13:09:59.688Z,0.40
2022-09-12T13:10:59.669Z,0.50
2022-09-12T13:11:59.659Z,0.40
2022-09-12T13:12:59.653Z,0.50
2022-09-12T13:13:59.642Z,0.40
2022-09-12T13:14:59.651Z,0.50
2022-09-12T13:15:59.887Z,0.30
2022-09-12T13:16:59.609Z,0.30
2022-09-12T13:17:59.603Z,0.50
2022-09-12T13:18:59.577Z,0.70